Time;durP1;ratioP1;P1;durP2;ratioP2;P2;SDS_P1;SDS_P2;PMS_P1;PMS_P2;Temp;Humidity;BMP_temperature;BMP_pressure;BME280_temperature;BME280_humidity;BME280_pressure;Samples;Min_cycle;Max_cycle;Signal;HPM_P1;HPM_P2
2022/04/03 00:00:55;;;;;;;6.87;4.43;;;1.70;99.90;;;;;;4989016;28;20101;-71
2022/04/03 00:03:21;;;;;;;9.82;4.70;;;1.70;99.90;;;;;;4994208;28;20048;-71
2022/04/03 00:05:47;;;;;;;9.43;4.77;;;1.70;99.90;;;;;;4984994;28;20605;-72
2022/04/03 00:08:13;;;;;;;7.53;4.93;;;1.70;99.90;;;;;;4988068;28;20022;-71
2022/04/03 00:10:40;;;;;;;11.87;4.77;;;1.80;99.90;;;;;;4976969;28;20034;-72
2022/04/03 00:13:07;;;;;;;9.40;4.10;;;1.80;99.90;;;;;;4989648;28;20782;-72
2022/04/03 00:15:38;;;;;;;8.95;5.28;;;1.80;99.90;;;;;;4987788;28;20030;-72
2022/04/03 00:18:04;;;;;;;8.95;4.85;;;1.80;99.90;;;;;;4986439;28;20376;-72
2022/04/03 00:20:30;;;;;;;14.67;6.00;;;1.80;99.90;;;;;;4990141;28;20022;-72
2022/04/03 00:22:56;;;;;;;9.17;5.30;;;1.90;99.90;;;;;;4983203;28;20479;-72
2022/04/03 00:25:24;;;;;;;11.00;5.93;;;1.90;99.90;;;;;;4985835;28;20651;-72
2022/04/03 00:27:49;;;;;;;8.07;5.18;;;1.90;99.90;;;;;;4985250;28;20160;-72
2022/04/03 00:30:16;;;;;;;11.47;5.40;;;2.00;99.90;;;;;;4989335;28;20110;-74
2022/04/03 00:32:43;;;;;;;12.27;5.53;;;1.90;99.90;;;;;;4988123;28;20037;-72
2022/04/03 00:35:09;;;;;;;21.92;6.32;;;2.00;99.90;;;;;;4989681;28;20026;-71
2022/04/03 00:37:37;;;;;;;10.50;5.38;;;2.00;99.90;;;;;;4986843;28;20054;-72
2022/04/03 00:40:04;;;;;;;12.95;6.05;;;2.00;99.90;;;;;;4987257;28;20030;-72
2022/04/03 00:42:34;;;;;;;9.88;6.00;;;2.00;99.90;;;;;;4988924;28;20081;-72
2022/04/03 00:44:59;;;;;;;11.75;5.88;;;2.00;99.90;;;;;;4988208;28;20033;-73
2022/04/03 00:47:27;;;;;;;9.97;5.97;;;2.00;99.90;;;;;;4982483;28;20022;-72
2022/04/03 00:49:54;;;;;;;13.45;6.45;;;2.00;99.90;;;;;;4987551;28;20022;-71
2022/04/03 00:52:21;;;;;;;9.27;5.45;;;2.00;99.90;;;;;;4989383;28;21433;-71
2022/04/03 00:54:47;;;;;;;10.93;6.20;;;1.90;99.90;;;;;;4980793;28;20022;-73
2022/04/03 00:57:13;;;;;;;12.80;5.40;;;1.90;99.90;;;;;;4989479;28;20045;-72
2022/04/03 00:59:42;;;;;;;9.23;5.55;;;1.90;99.90;;;;;;4982498;28;20022;-73
2022/04/03 01:02:09;;;;;;;11.02;7.22;;;1.80;99.90;;;;;;4991053;28;20475;-72
2022/04/03 01:04:38;;;;;;;;;;;1.90;99.90;;;;;;4986279;28;20023;-74
2022/04/03 01:07:05;;;;;;;9.52;6.13;;;1.80;99.90;;;;;;4994688;28;20554;-72
2022/04/03 01:09:32;;;;;;;9.70;5.70;;;1.80;99.90;;;;;;4997223;28;20372;-72
2022/04/03 01:11:58;;;;;;;9.68;6.55;;;1.80;99.90;;;;;;4991356;28;20431;-72
2022/04/03 01:14:36;;;;;;;9.00;5.43;;;1.80;99.90;;;;;;4995104;28;20391;-72
2022/04/03 01:17:03;;;;;;;12.63;6.13;;;1.80;99.90;;;;;;4993627;28;20030;-73
2022/04/03 01:19:29;;;;;;;10.65;6.07;;;1.80;99.90;;;;;;4994099;28;20053;-72
2022/04/03 01:21:56;;;;;;;9.70;6.30;;;1.90;99.90;;;;;;4990389;28;20486;-72
2022/04/03 01:24:23;;;;;;;10.48;5.90;;;1.80;99.90;;;;;;4991188;28;20018;-73
2022/04/03 01:26:51;;;;;;;10.15;5.35;;;1.90;99.90;;;;;;4984913;28;20069;-74
2022/04/03 01:29:17;;;;;;;11.15;6.68;;;1.90;99.90;;;;;;4992675;28;20061;-76
2022/04/03 01:31:46;;;;;;;10.18;6.30;;;1.90;99.90;;;;;;4982824;28;20467;-74
2022/04/03 01:34:16;;;;;;;11.02;5.90;;;1.90;99.90;;;;;;4990777;28;20045;-74
2022/04/03 01:36:44;;;;;;;10.20;5.85;;;1.80;99.90;;;;;;4982224;28;20025;-76
2022/04/03 01:39:13;;;;;;;10.18;5.85;;;1.90;99.90;;;;;;4989064;28;20726;-73
2022/04/03 01:41:42;;;;;;;14.00;6.50;;;1.90;99.90;;;;;;4987432;28;20053;-73
2022/04/03 01:44:10;;;;;;;10.82;6.10;;;1.90;99.90;;;;;;4992884;28;20495;-72
2022/04/03 01:46:37;;;;;;;10.10;6.45;;;1.90;99.90;;;;;;4985454;28;20023;-72
2022/04/03 01:49:04;;;;;;;11.50;6.63;;;1.80;99.90;;;;;;4992867;28;20022;-72
2022/04/03 01:51:31;;;;;;;9.82;6.32;;;1.80;99.90;;;;;;4985444;28;20029;-70
2022/04/03 01:53:56;;;;;;;10.77;6.72;;;1.80;99.90;;;;;;4987992;28;20034;-71
2022/04/03 01:56:22;;;;;;;10.80;6.47;;;1.70;99.90;;;;;;4991798;28;20080;-73
2022/04/03 01:58:50;;;;;;;14.87;7.30;;;1.70;99.90;;;;;;4989230;28;20104;-72
2022/04/03 02:01:16;;;;;;;9.07;5.57;;;1.70;99.90;;;;;;4987987;28;20081;-72
2022/04/03 02:03:43;;;;;;;8.85;5.65;;;1.70;99.90;;;;;;4988856;28;20235;-71
2022/04/03 02:06:11;;;;;;;16.02;6.90;;;1.70;99.90;;;;;;4989993;28;20026;-72
2022/04/03 02:08:37;;;;;;;10.05;6.15;;;1.70;99.90;;;;;;4989225;28;20483;-72
2022/04/03 02:11:03;;;;;;;12.02;5.90;;;1.70;99.90;;;;;;4990412;28;20034;-71
2022/04/03 02:13:28;;;;;;;12.87;6.60;;;1.70;99.90;;;;;;4991406;28;20026;-72
2022/04/03 02:15:54;;;;;;;9.40;5.43;;;1.70;99.90;;;;;;4989477;28;20792;-71
2022/04/03 02:18:22;;;;;;;9.60;5.93;;;1.70;99.90;;;;;;4991692;28;20032;-72
2022/04/03 02:20:48;;;;;;;13.32;6.78;;;1.70;99.90;;;;;;4981155;28;20094;-72
2022/04/03 02:23:14;;;;;;;8.85;5.90;;;1.70;99.90;;;;;;4990790;28;20022;-71
2022/04/03 02:25:42;;;;;;;8.53;5.60;;;1.70;99.90;;;;;;4988529;28;20061;-71
2022/04/03 02:28:10;;;;;;;9.98;5.57;;;1.70;99.90;;;;;;4989851;28;20053;-72
2022/04/03 02:30:36;;;;;;;8.48;4.85;;;1.70;99.90;;;;;;4986481;28;20422;-72
2022/04/03 02:33:02;;;;;;;9.77;5.33;;;1.70;99.90;;;;;;4986057;28;20037;-71
2022/04/03 02:35:28;;;;;;;11.87;4.97;;;1.70;99.90;;;;;;4994363;28;20636;-72
2022/04/03 02:37:54;;;;;;;12.73;5.20;;;1.70;99.90;;;;;;4984454;28;20051;-72
2022/04/03 02:40:21;;;;;;;8.00;4.55;;;1.70;99.90;;;;;;4992611;28;20152;-72
2022/04/03 02:42:47;;;;;;;9.10;5.70;;;1.70;99.90;;;;;;4982149;28;20036;-72
2022/04/03 02:45:15;;;;;;;7.68;4.60;;;1.70;99.90;;;;;;4989734;28;20021;-71
2022/04/03 02:47:49;;;;;;;8.68;4.25;;;1.70;99.90;;;;;;4982055;28;20043;-72
2022/04/03 02:50:16;;;;;;;8.98;4.55;;;1.70;99.90;;;;;;4991436;28;20456;-72
2022/04/03 02:52:43;;;;;;;8.75;4.57;;;1.70;99.90;;;;;;4982573;28;20029;-71
2022/04/03 02:55:16;;;;;;;8.45;4.55;;;1.70;99.90;;;;;;4993311;28;20420;-71
2022/04/03 02:57:43;;;;;;;7.43;4.43;;;1.60;99.90;;;;;;4981093;28;20029;-71
2022/04/03 03:00:17;;;;;;;14.50;3.63;;;1.60;99.90;;;;;;4991277;28;20117;-71
2022/04/03 03:02:52;;;;;;;7.55;3.90;;;1.60;99.90;;;;;;4984328;28;20105;-72
2022/04/03 03:05:19;;;;;;;10.32;3.70;;;1.60;99.90;;;;;;4991032;28;20716;-71
2022/04/03 03:07:46;;;;;;;9.68;3.83;;;1.60;99.90;;;;;;4986629;28;20026;-72
2022/04/03 03:10:17;;;;;;;6.22;3.65;;;1.60;99.90;;;;;;4988196;28;20129;-72
2022/04/03 03:12:47;;;;;;;8.38;3.95;;;1.60;99.90;;;;;;4989489;28;20035;-71
2022/04/03 03:15:13;;;;;;;6.65;3.85;;;1.50;99.90;;;;;;4989512;28;20438;-70
2022/04/03 03:17:46;;;;;;;7.50;4.05;;;1.50;99.90;;;;;;4982666;28;20472;-70
2022/04/03 03:20:12;;;;;;;7.57;3.83;;;1.50;99.90;;;;;;4986812;28;20045;-69
2022/04/03 03:22:38;;;;;;;7.53;3.93;;;1.50;99.90;;;;;;4987246;28;20023;-71
2022/04/03 03:25:06;;;;;;;9.30;4.07;;;1.50;99.90;;;;;;4991878;28;20314;-72
2022/04/03 03:27:36;;;;;;;7.82;3.83;;;1.40;99.90;;;;;;4986598;28;20707;-72
2022/04/03 03:30:03;;;;;;;6.97;4.05;;;1.40;99.90;;;;;;4982557;28;20067;-71
2022/04/03 03:32:29;;;;;;;5.60;3.63;;;1.40;99.90;;;;;;4992227;28;20030;-72
2022/04/03 03:34:54;;;;;;;9.53;4.67;;;1.40;99.90;;;;;;4980080;28;20018;-72
2022/04/03 03:37:21;;;;;;;5.87;3.50;;;1.50;99.90;;;;;;4992080;28;20421;-71
2022/04/03 03:39:47;;;;;;;6.80;3.58;;;1.70;99.90;;;;;;4981317;28;20030;-72
2022/04/03 03:42:14;;;;;;;6.88;3.90;;;1.50;99.90;;;;;;4988308;28;20496;-71
2022/04/03 03:44:43;;;;;;;7.47;4.28;;;1.50;99.90;;;;;;4987842;28;20037;-72
2022/04/03 03:47:08;;;;;;;7.72;4.18;;;1.50;99.90;;;;;;4991842;28;20022;-71
2022/04/03 03:49:35;;;;;;;6.87;3.90;;;1.50;99.90;;;;;;4990820;28;20022;-72
2022/04/03 03:52:03;;;;;;;9.13;4.38;;;1.40;99.90;;;;;;4984848;28;20641;-72
2022/04/03 03:54:30;;;;;;;8.77;4.22;;;1.40;99.90;;;;;;4987242;28;20035;-71
2022/04/03 03:56:56;;;;;;;9.52;4.53;;;1.40;99.90;;;;;;4983427;28;20033;-71
2022/04/03 03:59:23;;;;;;;8.90;4.43;;;1.40;99.90;;;;;;4985366;28;20025;-71
2022/04/03 04:01:50;;;;;;;10.00;4.43;;;1.30;99.90;;;;;;4977572;28;20034;-70
2022/04/03 04:04:16;;;;;;;;;;;1.30;99.90;;;;;;4988196;28;20415;-72
2022/04/03 04:06:43;;;;;;;9.98;4.53;;;1.30;99.90;;;;;;4983561;28;20382;-72
2022/04/03 04:09:08;;;;;;;9.93;4.70;;;1.30;99.90;;;;;;4989849;28;20026;-72
2022/04/03 04:11:34;;;;;;;8.07;4.87;;;1.20;99.90;;;;;;4990567;28;20076;-71
2022/04/03 04:14:00;;;;;;;8.20;4.93;;;1.20;99.90;;;;;;4987291;28;20038;-71
2022/04/03 04:16:26;;;;;;;10.03;5.10;;;1.20;99.90;;;;;;4991795;28;20037;-72
2022/04/03 04:18:53;;;;;;;9.85;5.05;;;1.10;99.90;;;;;;4980711;28;20395;-72
2022/04/03 04:21:19;;;;;;;8.30;4.85;;;1.10;99.90;;;;;;4984499;28;20566;-71
2022/04/03 04:23:44;;;;;;;10.30;5.83;;;1.10;99.90;;;;;;4984341;28;20038;-72
2022/04/03 04:26:10;;;;;;;8.03;5.40;;;1.00;99.90;;;;;;4989810;28;20049;-72
2022/04/03 04:28:42;;;;;;;10.90;5.93;;;1.00;99.90;;;;;;4985923;28;20415;-72
2022/04/03 04:31:09;;;;;;;10.48;5.85;;;1.10;99.90;;;;;;4984709;28;20422;-73
2022/04/03 04:33:37;;;;;;;10.27;5.40;;;1.00;99.90;;;;;;4991982;28;20025;-72
2022/04/03 04:36:04;;;;;;;14.00;5.60;;;1.10;99.90;;;;;;4984780;28;20530;-72
2022/04/03 04:38:30;;;;;;;;;;;1.10;99.90;;;;;;4988741;28;20022;-71
2022/04/03 04:40:56;;;;;;;9.25;4.80;;;1.10;99.90;;;;;;4984626;28;19921;-72
2022/04/03 04:43:22;;;;;;;10.40;5.33;;;1.10;99.90;;;;;;4985305;28;20026;-72
2022/04/03 04:45:48;;;;;;;8.10;4.87;;;1.10;99.90;;;;;;4983984;28;20014;-72
2022/04/03 04:48:16;;;;;;;15.25;5.80;;;1.10;99.90;;;;;;4993710;28;20522;-72
2022/04/03 04:50:42;;;;;;;8.50;5.10;;;1.10;99.90;;;;;;4984640;28;20034;-72
2022/04/03 04:53:08;;;;;;;;;;;1.10;99.90;;;;;;4987219;28;20034;-71
2022/04/03 04:55:34;;;;;;;9.77;4.38;;;1.20;99.90;;;;;;5011206;28;20012;-71
2022/04/03 04:58:02;;;;;;;10.30;5.50;;;1.20;99.90;;;;;;4979746;28;20117;-72
2022/04/03 05:00:30;;;;;;;8.93;4.30;;;1.20;99.90;;;;;;4986482;28;20065;-72
2022/04/03 05:02:59;;;;;;;9.90;4.68;;;1.30;99.90;;;;;;4984238;28;20565;-72
2022/04/03 05:05:27;;;;;;;6.60;4.35;;;1.30;99.90;;;;;;4985690;28;20604;-72
2022/04/03 05:07:55;;;;;;;8.35;4.43;;;1.30;99.90;;;;;;4983552;28;20018;-72
2022/04/03 05:10:23;;;;;;;7.00;4.20;;;1.30;99.90;;;;;;4985306;28;20036;-72
2022/04/03 05:12:49;;;;;;;9.85;4.30;;;1.30;99.90;;;;;;4981340;28;20022;-72
2022/04/03 05:15:18;;;;;;;7.90;4.32;;;1.30;99.90;;;;;;4986228;28;20021;-71
2022/04/03 05:17:45;;;;;;;7.40;4.15;;;1.30;99.90;;;;;;4982488;28;20084;-73
2022/04/03 05:20:13;;;;;;;6.93;3.83;;;1.30;99.90;;;;;;4986616;28;20022;-76
2022/04/03 05:22:41;;;;;;;8.23;4.45;;;1.50;99.90;;;;;;4990677;28;20027;-72
2022/04/03 05:25:10;;;;;;;6.90;4.07;;;1.80;99.90;;;;;;4984012;28;20021;-72
2022/04/03 05:27:36;;;;;;;5.57;3.53;;;2.30;99.90;;;;;;4986641;28;20136;-72
2022/04/03 05:30:03;;;;;;;7.20;3.47;;;2.90;99.90;;;;;;4984865;28;20225;-72
2022/04/03 05:32:31;;;;;;;13.38;3.88;;;3.40;99.90;;;;;;4988068;28;20018;-72
2022/04/03 05:34:58;;;;;;;6.75;3.05;;;3.70;99.90;;;;;;4978120;28;20022;-72
2022/04/03 05:37:24;;;;;;;;;;;4.20;99.00;;;;;;4988842;28;20022;-77
2022/04/03 05:39:51;;;;;;;9.40;3.88;;;4.80;97.80;;;;;;4981912;28;19913;-74
2022/04/03 05:42:21;;;;;;;5.75;3.47;;;5.50;97.10;;;;;;4990351;28;20026;-76
2022/04/03 05:44:47;;;;;;;5.53;3.17;;;6.20;94.50;;;;;;4984798;28;20034;-72
2022/04/03 05:47:13;;;;;;;7.85;3.22;;;6.50;93.70;;;;;;4989813;28;20022;-75
2022/04/03 05:49:39;;;;;;;8.25;3.42;;;6.50;93.30;;;;;;4990778;28;20356;-71
2022/04/03 05:52:05;;;;;;;5.60;2.73;;;7.10;92.00;;;;;;4982769;28;20026;-71
2022/04/03 05:54:31;;;;;;;6.73;2.90;;;7.10;90.40;;;;;;4990850;28;20269;-71
2022/04/03 05:56:58;;;;;;;7.97;3.33;;;7.00;90.70;;;;;;4984048;28;20269;-71
2022/04/03 05:59:23;;;;;;;5.88;3.10;;;7.20;88.90;;;;;;4989228;28;20049;-71
2022/04/03 06:01:49;;;;;;;7.30;3.03;;;7.40;89.10;;;;;;4990531;28;21276;-71
2022/04/03 06:04:15;;;;;;;6.35;3.30;;;7.80;85.00;;;;;;4985427;28;20102;-71
2022/04/03 06:06:41;;;;;;;5.73;3.40;;;8.50;82.40;;;;;;4984878;28;20056;-71
2022/04/03 06:09:07;;;;;;;5.27;2.80;;;8.90;79.20;;;;;;4988092;28;20026;-71
2022/04/03 06:11:33;;;;;;;4.82;2.70;;;9.10;77.30;;;;;;4988268;28;20154;-71
2022/04/03 06:14:00;;;;;;;4.55;2.90;;;9.50;76.80;;;;;;4983257;28;20029;-71
2022/04/03 06:16:28;;;;;;;6.22;2.90;;;10.00;73.50;;;;;;4989844;28;20025;-71
2022/04/03 06:18:55;;;;;;;6.65;3.10;;;10.10;71.50;;;;;;4978738;28;20140;-71
2022/04/03 06:21:21;;;;;;;5.30;3.17;;;10.20;69.80;;;;;;4981449;28;20034;-71
2022/04/03 06:23:47;;;;;;;6.43;2.92;;;10.50;69.00;;;;;;4986888;28;20480;-71
2022/04/03 06:26:14;;;;;;;6.10;3.55;;;10.80;67.30;;;;;;4992779;28;20048;-71
2022/04/03 06:28:39;;;;;;;;;;;11.10;65.50;;;;;;4986876;28;20023;-71
2022/04/03 06:31:05;;;;;;;6.68;2.78;;;11.20;64.50;;;;;;4991311;28;19917;-71
2022/04/03 06:33:31;;;;;;;7.10;3.33;;;11.30;62.90;;;;;;4984140;28;20022;-72
2022/04/03 06:35:57;;;;;;;6.20;3.28;;;11.50;62.80;;;;;;4985463;28;20707;-71
2022/04/03 06:38:23;;;;;;;9.98;3.78;;;11.80;61.50;;;;;;4985048;28;20026;-72
2022/04/03 06:40:57;;;;;;;5.65;2.90;;;11.90;61.50;;;;;;4984149;28;20042;-71
2022/04/03 06:43:26;;;;;;;4.20;2.58;;;11.80;59.80;;;;;;4986046;28;20022;-71
2022/04/03 06:45:53;;;;;;;8.68;3.22;;;11.70;61.50;;;;;;4987811;28;20117;-71
2022/04/03 06:48:20;;;;;;;6.72;3.33;;;12.30;59.80;;;;;;4988511;28;20034;-71
2022/04/03 06:50:45;;;;;;;;;;;12.50;57.60;;;;;;4989489;28;20035;-71
2022/04/03 06:53:11;;;;;;;7.85;2.80;;;12.90;56.60;;;;;;4987906;28;19913;-71
2022/04/03 06:55:37;;;;;;;5.70;3.07;;;12.30;56.90;;;;;;4987354;28;20012;-71
2022/04/03 06:58:04;;;;;;;8.53;3.70;;;11.40;58.20;;;;;;4990124;28;20265;-71
2022/04/03 07:00:30;;;;;;;6.20;3.00;;;11.00;59.00;;;;;;4980690;28;20702;-71
2022/04/03 07:02:56;;;;;;;8.50;2.83;;;10.60;60.10;;;;;;4993196;28;20073;-71
2022/04/03 07:05:22;;;;;;;6.60;3.13;;;9.40;62.50;;;;;;4983781;28;20084;-71
2022/04/03 07:07:51;;;;;;;6.33;2.90;;;9.00;65.00;;;;;;4984009;28;20031;-71
2022/04/03 07:10:17;;;;;;;4.38;2.90;;;9.00;65.10;;;;;;4989342;28;20257;-71
2022/04/03 07:12:43;;;;;;;7.03;3.27;;;8.90;66.50;;;;;;4989996;28;20468;-71
2022/04/03 07:15:12;;;;;;;6.83;3.67;;;9.20;66.10;;;;;;4988571;28;20141;-71
2022/04/03 07:17:42;;;;;;;5.10;2.97;;;9.10;64.80;;;;;;4983857;28;20026;-70
2022/04/03 07:20:08;;;;;;;7.10;3.08;;;9.00;65.30;;;;;;4987828;28;20106;-70
2022/04/03 07:22:34;;;;;;;;;;;9.10;66.80;;;;;;4984345;28;20608;-70
2022/04/03 07:25:01;;;;;;;6.63;3.42;;;9.40;64.60;;;;;;4993176;28;19913;-70
2022/04/03 07:27:27;;;;;;;6.00;2.88;;;9.30;65.70;;;;;;4986299;28;20476;-71
2022/04/03 07:29:53;;;;;;;6.65;3.40;;;9.40;65.30;;;;;;4985343;28;20031;-71
2022/04/03 07:32:19;;;;;;;6.43;3.87;;;9.90;64.20;;;;;;4983878;28;20038;-71
2022/04/03 07:34:45;;;;;;;7.10;3.33;;;10.00;63.00;;;;;;4980361;28;20682;-71
2022/04/03 07:37:10;;;;;;;5.87;2.77;;;9.90;64.90;;;;;;4985256;28;20196;-70
2022/04/03 07:39:36;;;;;;;7.17;3.50;;;9.70;63.20;;;;;;4983716;28;20037;-71
2022/04/03 07:42:03;;;;;;;7.30;3.63;;;9.50;63.40;;;;;;4989575;28;20038;-71
2022/04/03 07:44:29;;;;;;;4.38;3.13;;;9.70;63.40;;;;;;4988380;28;20025;-69
2022/04/03 07:46:55;;;;;;;3.75;2.58;;;9.50;63.50;;;;;;4987701;28;20014;-71
2022/04/03 07:49:22;;;;;;;8.30;3.03;;;9.80;62.80;;;;;;4991935;28;20482;-72
2022/04/03 07:51:47;;;;;;;9.30;3.17;;;10.80;62.40;;;;;;4983795;28;20021;-71
2022/04/03 07:54:14;;;;;;;5.10;3.25;;;11.90;59.00;;;;;;4986069;28;20037;-71
2022/04/03 07:56:40;;;;;;;8.13;3.15;;;12.60;56.40;;;;;;4984267;28;20966;-71
2022/04/03 07:59:07;;;;;;;5.70;3.05;;;12.70;55.10;;;;;;4985470;28;20105;-71
2022/04/03 08:01:34;;;;;;;5.50;3.35;;;12.80;55.30;;;;;;4980444;28;20030;-71
2022/04/03 08:04:01;;;;;;;5.82;3.13;;;13.00;54.40;;;;;;4980444;28;20034;-71
2022/04/03 08:06:27;;;;;;;5.25;3.20;;;13.30;54.50;;;;;;4978366;28;20085;-71
2022/04/03 08:08:53;;;;;;;5.22;3.47;;;13.50;54.00;;;;;;4983606;28;20026;-71
2022/04/03 08:11:19;;;;;;;9.27;3.13;;;12.90;52.80;;;;;;4992859;28;20890;-71
2022/04/03 08:13:47;;;;;;;5.05;3.03;;;12.20;54.00;;;;;;4980103;28;20472;-71
2022/04/03 08:16:14;;;;;;;5.43;3.13;;;11.40;56.20;;;;;;4985684;28;20053;-71
2022/04/03 08:18:39;;;;;;;8.82;3.35;;;11.00;58.20;;;;;;4985810;28;20021;-72
2022/04/03 08:21:05;;;;;;;6.47;3.03;;;10.80;57.30;;;;;;4983236;28;20085;-72
2022/04/03 08:23:30;;;;;;;7.00;3.13;;;10.60;57.50;;;;;;4981748;28;20029;-71
2022/04/03 08:25:56;;;;;;;7.67;3.73;;;10.30;57.30;;;;;;4987606;28;20496;-71
2022/04/03 08:28:22;;;;;;;6.03;3.70;;;10.00;58.30;;;;;;4981397;28;20391;-72
2022/04/03 08:30:49;;;;;;;5.90;2.92;;;9.90;58.10;;;;;;4983381;28;20093;-71
2022/04/03 08:33:14;;;;;;;;;;;10.10;60.30;;;;;;4989651;28;20061;-71
2022/04/03 08:35:40;;;;;;;6.97;3.53;;;10.90;57.60;;;;;;4982303;28;19991;-72
2022/04/03 08:38:07;;;;;;;5.53;2.95;;;11.60;56.70;;;;;;4980932;28;20025;-71
2022/04/03 08:40:34;;;;;;;6.80;3.17;;;12.30;54.80;;;;;;4979249;28;20041;-71
2022/04/03 08:43:01;;;;;;;5.38;3.22;;;12.50;54.00;;;;;;4984254;28;20030;-71
2022/04/03 08:45:27;;;;;;;7.28;3.22;;;12.20;52.90;;;;;;4981806;28;20584;-71
2022/04/03 08:47:58;;;;;;;8.63;4.55;;;12.50;53.10;;;;;;4987954;28;20026;-68
2022/04/03 08:50:29;;;;;;;5.35;3.70;;;12.90;55.50;;;;;;4982811;28;20035;-70
2022/04/03 08:52:59;;;;;;;6.63;3.75;;;12.80;52.90;;;;;;4978602;28;20400;-70
2022/04/03 08:55:25;;;;;;;5.38;3.67;;;12.90;55.60;;;;;;4983484;28;20046;-70
2022/04/03 08:57:51;;;;;;;5.65;3.67;;;13.00;54.30;;;;;;4988981;28;20112;-70
2022/04/03 09:00:17;;;;;;;7.65;4.40;;;13.10;54.30;;;;;;4980932;28;20073;-69
2022/04/03 09:02:46;;;;;;;6.45;3.70;;;13.00;52.60;;;;;;4980863;28;20133;-69
2022/04/03 09:05:14;;;;;;;5.55;3.40;;;12.70;52.70;;;;;;4986969;28;20603;-72
2022/04/03 09:07:40;;;;;;;8.00;3.75;;;12.70;51.40;;;;;;4981349;28;20141;-72
2022/04/03 09:10:08;;;;;;;9.35;4.40;;;12.80;52.50;;;;;;4983763;28;20245;-72
2022/04/03 09:12:42;;;;;;;7.43;3.58;;;12.80;52.10;;;;;;4984943;28;20030;-72
2022/04/03 09:15:12;;;;;;;7.53;3.45;;;13.00;50.70;;;;;;4989978;28;20431;-72
2022/04/03 09:17:44;;;;;;;6.20;3.97;;;13.20;51.40;;;;;;4982771;28;20123;-72
2022/04/03 09:20:14;;;;;;;5.28;3.63;;;13.30;51.20;;;;;;4993282;28;20637;-72
2022/04/03 09:22:43;;;;;;;6.05;3.50;;;13.50;51.60;;;;;;4987565;28;20033;-72
2022/04/03 09:25:11;;;;;;;4.63;3.40;;;13.80;50.90;;;;;;4991327;28;20025;-72
2022/04/03 09:27:48;;;;;;;7.90;3.50;;;14.20;50.20;;;;;;4989542;28;20077;-72
2022/04/03 09:30:15;;;;;;;4.57;3.40;;;14.60;49.00;;;;;;4988476;28;20037;-71
2022/04/03 09:32:51;;;;;;;4.82;3.42;;;15.10;48.50;;;;;;4986517;28;20148;-72
2022/04/03 09:35:19;;;;;;;8.77;3.70;;;15.20;47.40;;;;;;4990742;28;20029;-72
2022/04/03 09:38:20;;;;;;;5.75;3.97;;;14.70;46.80;;;;;;4984600;28;20022;-72
2022/04/03 09:40:47;;;;;;;6.65;3.97;;;13.60;47.90;;;;;;4871635;29;20320;-72
2022/04/03 09:43:38;;;;;;;7.38;4.32;;;13.40;50.00;;;;;;4975319;28;20038;-72
2022/04/03 09:46:06;;;;;;;7.13;4.05;;;14.20;49.60;;;;;;4985159;28;20026;-72
2022/04/03 09:48:43;;;;;;;6.95;4.07;;;14.70;47.00;;;;;;4988601;28;20025;-72
2022/04/03 09:51:22;;;;;;;5.75;3.80;;;14.50;47.70;;;;;;4989883;28;20053;-72
2022/04/03 09:53:53;;;;;;;6.40;3.90;;;13.60;47.10;;;;;;4987655;28;20108;-72
2022/04/03 09:56:23;;;;;;;6.88;3.97;;;12.70;48.40;;;;;;4989392;28;20033;-71
2022/04/03 09:58:53;;;;;;;7.47;4.13;;;12.00;50.50;;;;;;4987713;28;20868;-72
2022/04/03 10:01:39;;;;;;;6.20;4.90;;;11.40;52.50;;;;;;4981660;28;20057;-71
2022/04/03 10:04:07;;;;;;;6.18;4.53;;;10.50;53.20;;;;;;4981466;28;20376;-72
2022/04/03 10:06:34;;;;;;;7.07;4.82;;;9.70;55.70;;;;;;4981950;28;20108;-72
2022/04/03 10:09:01;;;;;;;10.07;4.60;;;9.10;56.30;;;;;;4988372;28;20439;-71
2022/04/03 10:11:27;;;;;;;;;;;8.60;57.80;;;;;;4989661;28;20037;-71
2022/04/03 10:13:54;;;;;;;8.50;4.78;;;8.10;59.40;;;;;;4987813;28;19909;-71
2022/04/03 10:16:22;;;;;;;9.10;4.90;;;7.80;59.70;;;;;;4991134;28;20125;-72
2022/04/03 10:18:50;;;;;;;6.30;5.05;;;7.30;61.30;;;;;;4988827;28;20792;-72
2022/04/03 10:21:24;;;;;;;7.28;5.30;;;7.00;63.00;;;;;;4986019;28;20124;-74
2022/04/03 10:23:53;;;;;;;8.60;5.65;;;6.70;63.70;;;;;;4986475;28;21003;-73
2022/04/03 10:26:20;;;;;;;7.72;5.20;;;6.30;64.60;;;;;;4992113;28;20109;-72
2022/04/03 10:28:52;;;;;;;7.60;5.60;;;6.10;66.00;;;;;;4990997;28;20040;-73
2022/04/03 10:31:19;;;;;;;9.05;6.30;;;5.90;66.60;;;;;;4992446;28;20022;-73
2022/04/03 10:33:49;;;;;;;10.45;5.95;;;5.80;66.50;;;;;;4984335;28;20364;-73
2022/04/03 10:36:27;;;;;;;9.02;5.60;;;5.90;67.30;;;;;;4983778;28;20029;-74
2022/04/03 10:39:00;;;;;;;9.90;5.57;;;6.00;67.60;;;;;;4985459;28;20040;-76
2022/04/03 10:41:28;;;;;;;7.88;5.38;;;5.90;67.50;;;;;;4989332;28;20062;-70
2022/04/03 10:44:18;;;;;;;8.10;5.53;;;5.80;70.10;;;;;;4986889;28;20018;-73
2022/04/03 10:47:05;;;;;;;8.45;4.93;;;6.00;73.10;;;;;;4980049;28;20518;-73
2022/04/03 10:50:10;;;;;;;11.25;5.28;;;5.60;68.90;;;;;;4988127;28;20053;-80
2022/04/03 10:52:39;;;;;;;8.98;4.85;;;5.30;71.20;;;;;;4908244;29;20099;-76
2022/04/03 10:55:22;;;;;;;8.38;5.22;;;5.10;71.90;;;;;;4914188;29;20170;-74
2022/04/03 10:57:54;;;;;;;7.78;5.45;;;5.00;72.40;;;;;;4958237;28;20120;-73
2022/04/03 11:00:20;;;;;;;8.55;4.97;;;5.10;72.80;;;;;;4994555;28;20997;-73
2022/04/03 11:03:00;;;;;;;9.23;5.43;;;5.20;71.60;;;;;;4990306;28;20018;-72
2022/04/03 11:05:26;;;;;;;7.00;4.35;;;5.50;72.10;;;;;;4989749;28;20032;-72
2022/04/03 11:08:04;;;;;;;5.93;4.18;;;6.00;71.10;;;;;;4984446;28;20578;-78
2022/04/03 11:10:52;;;;;;;5.90;4.30;;;6.20;69.00;;;;;;4993119;28;20379;-72
2022/04/03 11:13:39;;;;;;;6.63;4.18;;;6.40;67.20;;;;;;4988938;28;20022;-72
2022/04/03 11:16:12;;;;;;;8.23;4.33;;;6.50;67.90;;;;;;4984130;28;20092;-73
2022/04/03 11:18:49;;;;;;;5.00;3.88;;;6.50;67.00;;;;;;4987859;28;20022;-74
2022/04/03 11:21:22;;;;;;;8.07;3.85;;;6.40;67.00;;;;;;4989988;28;20022;-73
2022/04/03 11:23:52;;;;;;;6.13;3.70;;;6.30;67.10;;;;;;4982718;28;20109;-78
2022/04/03 11:26:19;;;;;;;6.05;4.00;;;6.10;67.50;;;;;;4994935;28;20097;-74
2022/04/03 11:28:46;;;;;;;5.38;3.65;;;5.90;67.20;;;;;;4987659;28;20025;-77
2022/04/03 11:31:15;;;;;;;4.95;3.53;;;5.80;67.50;;;;;;4988494;28;20034;-76
2022/04/03 11:33:42;;;;;;;4.97;3.40;;;5.70;67.80;;;;;;4985606;28;20034;-71
2022/04/03 11:36:12;;;;;;;5.90;3.78;;;5.70;68.40;;;;;;4990938;28;20030;-77
2022/04/03 11:38:43;;;;;;;6.90;3.70;;;5.70;67.70;;;;;;4985824;28;20081;-79
2022/04/03 11:41:17;;;;;;;5.82;3.72;;;5.80;68.20;;;;;;4989196;28;20739;-80
2022/04/03 11:43:54;;;;;;;5.85;3.40;;;5.80;68.60;;;;;;4987679;28;20753;-74
2022/04/03 11:46:22;;;;;;;8.80;3.33;;;5.80;67.90;;;;;;4986734;28;20178;-72
2022/04/03 11:48:47;;;;;;;5.05;3.05;;;5.80;68.50;;;;;;4984877;28;20026;-76
2022/04/03 11:51:16;;;;;;;6.57;3.40;;;5.70;68.30;;;;;;4985314;28;20033;-73
2022/04/03 11:53:44;;;;;;;6.50;3.38;;;5.60;69.00;;;;;;4982793;28;20032;-82
2022/04/03 11:56:14;;;;;;;6.25;3.67;;;5.40;68.90;;;;;;4994391;28;20026;-79
2022/04/03 11:58:43;;;;;;;7.03;3.60;;;5.10;69.30;;;;;;4980705;28;20018;-72
2022/04/03 12:01:09;;;;;;;4.78;3.00;;;4.90;70.30;;;;;;4985822;28;20105;-75
2022/04/03 12:03:36;;;;;;;4.88;3.38;;;4.80;70.90;;;;;;4989393;28;20022;-73
2022/04/03 12:06:18;;;;;;;6.15;3.65;;;4.70;70.30;;;;;;4986766;28;20022;-73
2022/04/03 12:08:46;;;;;;;6.38;3.28;;;4.70;70.30;;;;;;4986682;28;20014;-74
2022/04/03 12:11:27;;;;;;;5.72;3.50;;;4.70;70.40;;;;;;4992408;28;20072;-72
2022/04/03 12:14:00;;;;;;;4.13;3.20;;;4.60;71.30;;;;;;4987629;28;20026;-79
2022/04/03 12:16:30;;;;;;;6.35;3.45;;;4.60;72.10;;;;;;4989693;28;20032;-72
2022/04/03 12:19:08;;;;;;;5.60;3.60;;;4.70;72.60;;;;;;4981818;28;20612;-73
2022/04/03 12:21:57;;;;;;;4.97;3.95;;;4.70;73.20;;;;;;4990181;28;20028;-72
2022/04/03 12:24:30;;;;;;;6.80;3.53;;;4.70;73.40;;;;;;4990863;28;20093;-73
2022/04/03 12:27:05;;;;;;;6.45;3.33;;;4.60;72.80;;;;;;4979912;28;20097;-72
2022/04/03 12:29:35;;;;;;;4.72;3.40;;;4.70;73.20;;;;;;4990648;28;20010;-78
2022/04/03 12:32:09;;;;;;;5.95;3.67;;;4.70;72.50;;;;;;4991152;28;20026;-73
2022/04/03 12:34:40;;;;;;;8.73;3.85;;;4.90;72.60;;;;;;4986753;28;20026;-71
2022/04/03 12:37:07;;;;;;;5.70;2.97;;;5.00;73.00;;;;;;4991686;28;20490;-73
2022/04/03 12:39:39;;;;;;;4.80;3.33;;;5.10;73.00;;;;;;4983364;28;20164;-74
2022/04/03 12:42:10;;;;;;;7.35;3.55;;;5.10;73.20;;;;;;4994299;28;20089;-71
2022/04/03 12:44:55;;;;;;;5.45;3.50;;;5.40;73.10;;;;;;4990372;28;20076;-72
2022/04/03 12:47:31;;;;;;;5.40;3.10;;;5.90;71.70;;;;;;4988140;28;20419;-75
2022/04/03 12:50:06;;;;;;;4.75;3.20;;;6.70;76.60;;;;;;4986786;28;20830;-74
2022/04/03 12:52:47;;;;;;;4.93;2.78;;;7.50;67.50;;;;;;4985328;28;20519;-72
2022/04/03 12:55:25;;;;;;;7.57;3.20;;;7.70;66.80;;;;;;4987756;28;20769;-73
2022/04/03 13:01:06;;;;;;;4.40;2.85;;;7.60;64.40;;;;;;4987959;28;20092;-72
2022/04/03 13:03:45;;;;;;;5.65;3.20;;;7.50;65.30;;;;;;4988206;28;20025;-71
2022/04/03 13:06:26;;;;;;;9.40;3.70;;;7.50;65.40;;;;;;4982020;28;20022;-70